TDCF/DCF METAR and TAF weather

Enter ICAO airport designator
Station Type Date Time Source
TDCF METAR 2019/08/18 20:00 UTC NOAA

TDCF 182000Z 27002KT 9999 BKN018 32/25 Q1013


Station Type Date Time Source
TDCF Decoded METAR 2019/08/18 20:00 UTC NOAA

Station name not available
Aug 18, 2019 - 04:00 PM EDT / 2019.08.18 2000 UTC
Wind: from the W (270 degrees) at 2 MPH (2 KT):0
Visibility: greater than 7 mile(s):0
Sky conditions: mostly cloudy
Temperature: 89 F (32 C)
Heat index: 100.6 F (38.1 C):1
Dew Point: 77 F (25 C)
Relative Humidity: 66%
Pressure (altimeter): 29.91 in. Hg (1013 hPa)
ob: TDCF 182000Z 27002KT 9999 BKN018 32/25 Q1013
cycle: 20

Station Type Date Time Source
TDCF TAF 2012/05/01 18:15 UTC NOAA

TAF TDCF 011600Z 0118/0218 110010KT 9999 SCT018 BKN030
TEMPO 0118/0206 6000 SHRA BKN014 BKN070

Example: see airport list